Time;durP1;ratioP1;P1;durP2;ratioP2;P2;SDS_P1;SDS_P2;PMS_P1;PMS_P2;Temp;Humidity;BMP_temperature;BMP_pressure;BME280_temperature;BME280_humidity;BME280_pressure;Samples;Min_cycle;Max_cycle;Signal;HPM_P1;HPM_P2
2021/04/27 00:02:06;;;;;;;9.03;6.57;;;5.60;99.90;;;;;;5042926;28;20189;-65
2021/04/27 00:04:35;;;;;;;12.23;6.80;;;5.50;99.90;;;;;;5038604;28;20205;-65
2021/04/27 00:07:03;;;;;;;11.20;7.17;;;5.50;99.90;;;;;;5041069;28;20188;-65
2021/04/27 00:09:31;;;;;;;12.63;6.53;;;5.60;99.90;;;;;;5040858;28;20205;-65
2021/04/27 00:12:01;;;;;;;14.40;7.03;;;5.60;99.90;;;;;;5034985;28;20184;-64
2021/04/27 00:14:28;;;;;;;9.53;6.47;;;5.70;99.90;;;;;;5028371;28;20407;-65
2021/04/27 00:16:56;;;;;;;11.33;6.57;;;5.70;99.90;;;;;;5039550;28;20217;-65
2021/04/27 00:19:23;;;;;;;10.37;6.57;;;5.70;99.90;;;;;;5039601;28;20407;-65
2021/04/27 00:21:53;;;;;;;13.97;6.50;;;5.70;99.90;;;;;;5037843;28;20181;-65
2021/04/27 00:24:22;;;;;;;9.43;6.67;;;5.60;99.90;;;;;;5036774;28;20257;-65
2021/04/27 00:26:50;;;;;;;8.23;6.10;;;5.60;99.90;;;;;;5039693;28;20202;-66
2021/04/27 00:29:18;;;;;;;9.77;6.33;;;5.60;99.90;;;;;;5038174;28;20222;-65
2021/04/27 00:31:46;;;;;;;8.93;5.93;;;5.60;99.90;;;;;;5033646;28;20220;-65
2021/04/27 00:34:14;;;;;;;9.30;6.27;;;5.50;99.90;;;;;;5035315;28;20190;-66
2021/04/27 00:36:42;;;;;;;9.27;5.90;;;5.50;99.90;;;;;;5037384;28;20398;-65
2021/04/27 00:39:09;;;;;;;10.33;6.67;;;5.50;99.90;;;;;;5040968;28;20289;-65
2021/04/27 00:41:36;;;;;;;10.53;6.20;;;5.40;99.90;;;;;;5040680;28;20225;-65
2021/04/27 00:44:04;;;;;;;7.93;6.27;;;5.40;99.90;;;;;;5040686;28;20194;-65
2021/04/27 00:46:33;;;;;;;13.60;7.00;;;5.40;99.90;;;;;;5038193;28;20177;-65
2021/04/27 00:49:00;;;;;;;8.97;6.57;;;5.30;99.90;;;;;;5044886;28;20185;-65
2021/04/27 00:51:29;;;;;;;9.40;6.07;;;5.30;99.90;;;;;;5040052;28;20213;-66
2021/04/27 00:53:57;;;;;;;7.70;6.50;;;5.30;99.90;;;;;;5033334;28;20185;-65
2021/04/27 00:56:24;;;;;;;9.77;5.90;;;5.30;99.90;;;;;;5037442;28;20205;-65
2021/04/27 00:58:53;;;;;;;8.93;6.27;;;5.30;99.90;;;;;;5039712;28;20197;-65
2021/04/27 01:01:22;;;;;;;10.07;6.37;;;5.20;99.90;;;;;;5034321;28;20511;-65
2021/04/27 01:03:50;;;;;;;8.90;6.30;;;5.20;99.90;;;;;;5040440;28;20385;-65
2021/04/27 01:06:21;;;;;;;8.77;6.40;;;5.20;99.90;;;;;;5034749;28;20197;-65
2021/04/27 01:08:51;;;;;;;10.20;5.90;;;5.10;99.90;;;;;;5041585;28;20189;-65
2021/04/27 01:11:29;;;;;;;8.03;6.03;;;5.10;99.90;;;;;;5031794;28;20188;-65
2021/04/27 01:14:04;;;;;;;10.57;5.77;;;5.00;99.90;;;;;;5041140;28;20181;-65
2021/04/27 01:16:33;;;;;;;9.73;6.07;;;5.00;99.90;;;;;;5032352;28;20244;-65
2021/04/27 01:19:06;;;;;;;8.33;5.80;;;4.90;99.90;;;;;;5029752;28;21718;-65
2021/04/27 01:21:34;;;;;;;10.07;6.30;;;4.90;99.90;;;;;;5036620;28;20181;-64
2021/04/27 01:24:14;;;;;;;11.53;6.20;;;4.90;99.90;;;;;;5034252;28;20186;-65
2021/04/27 01:26:46;;;;;;;11.70;5.80;;;4.90;99.90;;;;;;5035129;28;20178;-64
2021/04/27 01:29:16;;;;;;;11.80;6.33;;;5.00;99.90;;;;;;5036680;28;20229;-64
2021/04/27 01:31:46;;;;;;;8.60;5.83;;;5.00;99.90;;;;;;5037655;28;20182;-65
2021/04/27 01:34:15;;;;;;;9.13;5.50;;;5.00;99.90;;;;;;5040165;28;20196;-65
2021/04/27 01:36:43;;;;;;;9.57;5.80;;;5.00;99.90;;;;;;5039170;28;20305;-64
2021/04/27 01:39:13;;;;;;;6.60;5.37;;;5.00;99.90;;;;;;5032882;28;20186;-65
2021/04/27 01:41:42;;;;;;;11.40;5.57;;;4.90;99.90;;;;;;5036485;28;20398;-65
2021/04/27 01:44:11;;;;;;;7.10;5.37;;;4.90;99.90;;;;;;5033773;28;20224;-64
2021/04/27 01:46:39;;;;;;;12.17;5.53;;;4.90;99.90;;;;;;5042839;28;20189;-65
2021/04/27 01:49:06;;;;;;;7.83;5.67;;;4.80;99.90;;;;;;5058341;28;20253;-65
2021/04/27 01:51:35;;;;;;;10.53;5.40;;;4.70;99.90;;;;;;5039952;28;20181;-64
2021/04/27 01:54:04;;;;;;;7.67;5.57;;;4.70;99.90;;;;;;5043559;28;20192;-65
2021/04/27 01:56:31;;;;;;;8.57;5.60;;;4.60;99.90;;;;;;5042552;28;20174;-65
2021/04/27 01:58:58;;;;;;;10.47;5.10;;;4.60;99.90;;;;;;5031743;28;20450;-65
2021/04/27 02:01:27;;;;;;;7.87;4.77;;;4.50;99.90;;;;;;5049754;28;20244;-65
2021/04/27 02:03:54;;;;;;;9.30;5.80;;;4.50;99.90;;;;;;5036680;28;20189;-65
2021/04/27 02:06:21;;;;;;;11.20;5.40;;;4.40;99.90;;;;;;5038840;28;20189;-65
2021/04/27 02:08:57;;;;;;;11.03;5.53;;;4.40;99.90;;;;;;5036229;28;20240;-65
2021/04/27 02:11:25;;;;;;;8.33;5.90;;;4.40;99.90;;;;;;5035363;28;20262;-65
2021/04/27 02:13:53;;;;;;;7.70;5.80;;;4.30;99.90;;;;;;5041584;28;20181;-65
2021/04/27 02:16:24;;;;;;;10.33;5.80;;;4.30;99.90;;;;;;5044391;28;20278;-65
2021/04/27 02:18:57;;;;;;;8.20;5.40;;;4.30;99.90;;;;;;5040762;28;20460;-65
2021/04/27 02:21:27;;;;;;;8.17;5.50;;;4.30;99.90;;;;;;5041728;28;20216;-65
2021/04/27 02:23:55;;;;;;;10.90;5.90;;;4.30;99.90;;;;;;5035721;28;20220;-65
2021/04/27 02:26:22;;;;;;;9.80;6.07;;;4.30;99.90;;;;;;5031188;28;20261;-65
2021/04/27 02:28:52;;;;;;;11.00;5.93;;;4.30;99.90;;;;;;5042415;28;20182;-65
2021/04/27 02:31:20;;;;;;;8.57;5.20;;;4.20;99.90;;;;;;5033564;28;20210;-65
2021/04/27 02:33:47;;;;;;;9.30;5.90;;;4.30;99.90;;;;;;5034936;28;20205;-65
2021/04/27 02:36:16;;;;;;;14.23;5.47;;;4.30;99.90;;;;;;5038287;28;20406;-65
2021/04/27 02:38:43;;;;;;;7.03;5.67;;;4.20;99.90;;;;;;5036602;28;20407;-65
2021/04/27 02:41:15;;;;;;;6.40;5.13;;;4.20;99.90;;;;;;5036548;28;20291;-65
2021/04/27 02:43:43;;;;;;;10.23;5.57;;;4.20;99.90;;;;;;5024005;28;20392;-64
2021/04/27 02:46:10;;;;;;;7.87;5.80;;;4.10;99.90;;;;;;5047282;28;20193;-65
2021/04/27 02:48:38;;;;;;;7.23;5.40;;;4.20;99.90;;;;;;5038006;28;20198;-65
2021/04/27 02:51:05;;;;;;;9.83;5.80;;;4.10;99.90;;;;;;5035801;28;20252;-65
2021/04/27 02:53:34;;;;;;;8.83;5.40;;;4.10;99.90;;;;;;5029723;28;20347;-65
2021/04/27 02:56:01;;;;;;;6.37;5.67;;;4.10;99.90;;;;;;5040829;28;20239;-65
2021/04/27 02:58:29;;;;;;;9.83;5.63;;;4.00;99.90;;;;;;5033987;28;20233;-65
2021/04/27 03:00:56;;;;;;;8.50;5.80;;;4.10;99.90;;;;;;5047099;28;20435;-65
2021/04/27 03:03:23;;;;;;;10.80;5.83;;;4.00;99.90;;;;;;5042457;28;20410;-65
2021/04/27 03:05:50;;;;;;;5.97;5.33;;;4.00;99.90;;;;;;5039663;28;20178;-65
2021/04/27 03:08:18;;;;;;;9.53;5.97;;;4.00;99.90;;;;;;5032109;28;20326;-65
2021/04/27 03:10:49;;;;;;;6.63;5.43;;;4.10;99.90;;;;;;5039667;28;20525;-65
2021/04/27 03:13:16;;;;;;;6.93;5.60;;;4.00;99.90;;;;;;5051687;28;20273;-65
2021/04/27 03:15:43;;;;;;;6.97;5.70;;;4.00;99.90;;;;;;5023893;28;20186;-65
2021/04/27 03:18:11;;;;;;;8.10;5.53;;;3.90;99.90;;;;;;5035463;28;20220;-65
2021/04/27 03:20:42;;;;;;;5.43;4.93;;;3.90;99.90;;;;;;5029222;28;20201;-63
2021/04/27 03:23:10;;;;;;;10.63;5.80;;;3.90;99.90;;;;;;5029053;28;20411;-65
2021/04/27 03:25:38;;;;;;;8.13;5.70;;;3.80;99.90;;;;;;5026734;28;20244;-65
2021/04/27 03:28:06;;;;;;;7.53;4.97;;;3.80;99.90;;;;;;5036152;28;20232;-65
2021/04/27 03:30:34;;;;;;;8.63;5.80;;;3.70;99.90;;;;;;5029018;28;20213;-65
2021/04/27 03:33:01;;;;;;;7.00;5.40;;;3.70;99.90;;;;;;5030721;28;20206;-65
2021/04/27 03:35:29;;;;;;;8.47;5.70;;;3.60;99.90;;;;;;5039887;28;20182;-65
2021/04/27 03:37:57;;;;;;;8.80;5.57;;;3.60;99.90;;;;;;5041473;28;20342;-65
2021/04/27 03:40:24;;;;;;;6.53;5.60;;;3.50;99.90;;;;;;5035784;28;20181;-65
2021/04/27 03:42:52;;;;;;;8.77;5.93;;;3.50;99.90;;;;;;5039890;28;20232;-65
2021/04/27 03:45:22;;;;;;;8.47;5.83;;;3.50;99.90;;;;;;5045526;28;20177;-65
2021/04/27 03:47:50;;;;;;;8.33;5.70;;;3.50;99.90;;;;;;5032382;28;20345;-65
2021/04/27 03:50:20;;;;;;;12.00;6.20;;;3.50;99.90;;;;;;5037992;28;20277;-65
2021/04/27 03:52:47;;;;;;;11.17;5.93;;;3.50;99.90;;;;;;5033070;28;20216;-65
2021/04/27 03:55:19;;;;;;;9.57;5.53;;;3.50;99.90;;;;;;5037001;28;20183;-65
2021/04/27 03:57:46;;;;;;;7.43;5.50;;;3.50;99.90;;;;;;5033953;28;20182;-65
2021/04/27 04:00:16;;;;;;;11.17;5.77;;;3.40;99.90;;;;;;5037532;28;20232;-65
2021/04/27 04:02:44;;;;;;;8.10;6.10;;;3.40;99.90;;;;;;5029809;28;20205;-64
2021/04/27 04:05:13;;;;;;;10.43;6.63;;;3.40;99.90;;;;;;5034913;28;20201;-65
2021/04/27 04:07:40;;;;;;;8.97;6.03;;;3.30;99.90;;;;;;5045994;28;20177;-63
2021/04/27 04:10:10;;;;;;;7.50;5.80;;;3.30;99.90;;;;;;5055872;28;20217;-64
2021/04/27 04:12:38;;;;;;;6.97;5.97;;;3.30;99.90;;;;;;5046631;28;20198;-65
2021/04/27 04:15:08;;;;;;;9.10;6.30;;;3.30;99.90;;;;;;5035345;28;20228;-65
2021/04/27 04:17:35;;;;;;;9.53;6.13;;;3.30;99.90;;;;;;5047525;28;20232;-65
2021/04/27 04:20:05;;;;;;;11.30;6.50;;;3.20;99.90;;;;;;5043733;28;20379;-64
2021/04/27 04:22:34;;;;;;;8.80;5.67;;;3.20;99.90;;;;;;5033522;28;20252;-65
2021/04/27 04:25:02;;;;;;;10.50;5.87;;;3.20;99.90;;;;;;5037715;28;20182;-65
2021/04/27 04:27:29;;;;;;;8.13;6.43;;;3.20;99.90;;;;;;5044062;28;20184;-65
2021/04/27 04:29:56;;;;;;;10.20;6.63;;;3.20;99.90;;;;;;5032066;28;20206;-64
2021/04/27 04:32:23;;;;;;;9.63;6.33;;;3.20;99.90;;;;;;5041800;28;20341;-65
2021/04/27 04:34:51;;;;;;;9.83;6.40;;;3.30;99.90;;;;;;5031319;28;20422;-65
2021/04/27 04:37:19;;;;;;;13.47;6.53;;;3.40;99.90;;;;;;5031669;28;20186;-65
2021/04/27 04:39:46;;;;;;;7.33;6.10;;;3.40;99.90;;;;;;5031538;28;20211;-65
2021/04/27 04:42:13;;;;;;;12.97;5.97;;;3.40;99.90;;;;;;5034268;28;20197;-65
2021/04/27 04:44:41;;;;;;;8.23;6.53;;;3.50;99.90;;;;;;5043203;28;20836;-65
2021/04/27 04:47:08;;;;;;;10.27;6.23;;;3.50;99.90;;;;;;5038087;28;20212;-65
2021/04/27 04:49:35;;;;;;;9.77;6.07;;;3.60;99.90;;;;;;5035678;28;20413;-65
2021/04/27 04:52:03;;;;;;;7.43;6.40;;;3.60;99.90;;;;;;5042916;28;20177;-65
2021/04/27 04:54:31;;;;;;;14.27;7.57;;;3.60;99.90;;;;;;5032976;28;20418;-65
2021/04/27 04:56:58;;;;;;;10.67;6.40;;;3.70;99.90;;;;;;5034895;28;20232;-65
2021/04/27 04:59:25;;;;;;;10.47;6.90;;;3.70;99.90;;;;;;5030692;28;20182;-65
2021/04/27 05:01:53;;;;;;;8.40;6.40;;;3.80;99.90;;;;;;5031246;28;20181;-65
2021/04/27 05:04:20;;;;;;;10.07;6.90;;;3.90;99.90;;;;;;5041050;28;20186;-65
2021/04/27 05:06:48;;;;;;;11.80;6.63;;;4.00;99.90;;;;;;5037351;28;20426;-64
2021/04/27 05:09:16;;;;;;;9.83;6.80;;;4.10;99.90;;;;;;5040045;28;20216;-65
2021/04/27 05:11:45;;;;;;;12.20;6.63;;;4.20;99.90;;;;;;5036044;28;20210;-64
2021/04/27 05:14:12;;;;;;;13.43;6.53;;;4.30;99.90;;;;;;5032542;28;20189;-65
2021/04/27 05:16:39;;;;;;;13.73;6.90;;;4.40;99.90;;;;;;5033720;28;20178;-65
2021/04/27 05:19:07;;;;;;;8.67;6.70;;;4.60;99.90;;;;;;5038575;28;20216;-66
2021/04/27 05:21:34;;;;;;;17.17;6.57;;;4.70;99.90;;;;;;5040164;28;20327;-65
2021/04/27 05:24:02;;;;;;;13.23;6.53;;;4.70;99.90;;;;;;5029402;28;20186;-65
2021/04/27 05:26:29;;;;;;;8.43;6.40;;;4.90;99.90;;;;;;5036327;28;20197;-66
2021/04/27 05:28:57;;;;;;;13.00;7.37;;;5.00;99.90;;;;;;5040382;28;20189;-66
2021/04/27 05:31:25;;;;;;;8.53;6.53;;;5.20;99.90;;;;;;5042364;28;20243;-66
2021/04/27 05:33:52;;;;;;;9.03;6.57;;;5.60;99.90;;;;;;5028140;28;20229;-65
2021/04/27 05:36:20;;;;;;;8.00;6.27;;;6.00;99.90;;;;;;5034953;28;20186;-66
2021/04/27 05:38:47;;;;;;;12.17;6.77;;;6.50;99.90;;;;;;5034483;28;20185;-66
2021/04/27 05:41:15;;;;;;;11.20;5.87;;;6.80;99.90;;;;;;5041077;28;20177;-66
2021/04/27 05:43:42;;;;;;;10.47;6.23;;;7.10;99.90;;;;;;5041550;28;20224;-66
2021/04/27 05:46:10;;;;;;;9.83;6.37;;;7.40;99.90;;;;;;5040032;28;20181;-66
2021/04/27 05:48:37;;;;;;;9.83;6.00;;;7.80;99.90;;;;;;5039225;28;20200;-66
2021/04/27 05:51:05;;;;;;;9.57;5.80;;;8.10;99.90;;;;;;5036570;28;20213;-66
2021/04/27 05:53:32;;;;;;;13.17;6.10;;;8.30;99.90;;;;;;5035440;28;20225;-66
2021/04/27 05:56:00;;;;;;;7.20;6.13;;;8.50;99.90;;;;;;5036642;28;20185;-66
2021/04/27 05:58:27;;;;;;;14.13;6.10;;;8.80;99.90;;;;;;5030332;28;20185;-66
2021/04/27 06:00:56;;;;;;;15.57;6.37;;;9.00;99.90;;;;;;5039961;28;20231;-66
2021/04/27 06:03:33;;;;;;;9.77;5.70;;;8.90;99.90;;;;;;5034960;28;20264;-66
2021/04/27 06:06:01;;;;;;;13.93;7.03;;;9.00;99.90;;;;;;5041432;28;20181;-66
2021/04/27 06:08:29;;;;;;;9.73;6.07;;;9.30;99.90;;;;;;5041825;28;20265;-66
2021/04/27 06:10:57;;;;;;;7.40;5.63;;;9.40;99.90;;;;;;5043132;28;20205;-66
2021/04/27 06:13:24;;;;;;;11.00;5.83;;;9.40;99.90;;;;;;5034603;28;20224;-67
2021/04/27 06:15:51;;;;;;;19.47;6.97;;;9.40;99.90;;;;;;5038832;28;20185;-66
2021/04/27 06:18:18;;;;;;;9.40;6.83;;;9.10;99.90;;;;;;5044213;28;20244;-67
2021/04/27 06:20:47;;;;;;;9.97;6.90;;;9.00;99.90;;;;;;5044480;28;20231;-67
2021/04/27 06:23:14;;;;;;;9.33;6.77;;;8.80;99.90;;;;;;5042931;28;20299;-67
2021/04/27 06:25:41;;;;;;;9.57;7.10;;;8.60;99.90;;;;;;5031703;28;20184;-67
2021/04/27 06:28:10;;;;;;;15.13;7.47;;;8.90;99.90;;;;;;5029148;28;20198;-65
2021/04/27 06:30:38;;;;;;;9.13;6.80;;;9.30;99.90;;;;;;5035592;28;20221;-66
2021/04/27 06:33:06;;;;;;;11.10;7.80;;;9.60;99.90;;;;;;5032713;28;20394;-67
2021/04/27 06:35:34;;;;;;;9.67;7.20;;;10.00;99.90;;;;;;5029337;28;20268;-67
2021/04/27 06:38:04;;;;;;;14.93;7.80;;;9.90;99.90;;;;;;5036339;28;20201;-66
2021/04/27 06:40:32;;;;;;;7.53;6.77;;;9.70;99.90;;;;;;5038554;28;20247;-66
2021/04/27 06:42:59;;;;;;;10.90;7.17;;;10.10;99.90;;;;;;5038916;28;20181;-67
2021/04/27 06:45:29;;;;;;;12.83;7.07;;;10.40;99.90;;;;;;5032778;28;20221;-67
2021/04/27 06:48:03;;;;;;;10.37;7.27;;;10.80;99.90;;;;;;5026255;28;20180;-67
2021/04/27 06:50:31;;;;;;;9.87;6.90;;;11.10;99.90;;;;;;5036616;28;20214;-67
2021/04/27 06:52:59;;;;;;;9.63;7.13;;;11.30;99.90;;;;;;5033173;28;20240;-67
2021/04/27 06:55:27;;;;;;;8.43;6.90;;;11.10;99.90;;;;;;5031295;28;20438;-67
2021/04/27 06:58:00;;;;;;;9.43;7.63;;;11.00;99.90;;;;;;5027508;28;20283;-66
2021/04/27 07:00:28;;;;;;;9.80;7.27;;;11.00;99.90;;;;;;5029070;28;20237;-67
2021/04/27 07:02:55;;;;;;;10.40;7.63;;;10.80;99.90;;;;;;5037085;28;20418;-67
2021/04/27 07:05:23;;;;;;;8.87;7.23;;;10.50;99.90;;;;;;5038666;28;20185;-66
2021/04/27 07:07:51;;;;;;;10.97;7.50;;;10.20;99.90;;;;;;5043294;28;20177;-67
2021/04/27 07:10:22;;;;;;;12.47;7.67;;;10.10;99.90;;;;;;5043459;28;20213;-67
2021/04/27 07:12:50;;;;;;;12.77;7.87;;;10.10;99.90;;;;;;5040867;28;20223;-65
2021/04/27 07:15:18;;;;;;;15.63;7.53;;;10.60;99.90;;;;;;5037825;28;20300;-67
2021/04/27 07:17:47;;;;;;;10.40;7.07;;;11.20;99.90;;;;;;5038362;28;20221;-67
2021/04/27 07:20:15;;;;;;;12.77;7.00;;;11.60;99.90;;;;;;5036809;28;20185;-67
2021/04/27 07:22:43;;;;;;;12.27;7.33;;;11.80;99.90;;;;;;5034208;28;20399;-68
2021/04/27 07:25:12;;;;;;;9.83;7.17;;;11.90;99.90;;;;;;5053433;28;20223;-67
2021/04/27 07:27:40;;;;;;;10.77;7.47;;;11.70;99.90;;;;;;5031483;28;20241;-67
2021/04/27 07:30:10;;;;;;;14.37;7.23;;;12.10;99.90;;;;;;5029458;28;20201;-67
2021/04/27 07:32:38;;;;;;;14.20;6.90;;;12.60;99.90;;;;;;5036039;28;20189;-67
2021/04/27 07:35:07;;;;;;;14.33;8.03;;;13.10;99.90;;;;;;5037149;28;20444;-67
2021/04/27 07:37:35;;;;;;;13.83;7.60;;;13.50;99.90;;;;;;5029738;28;20236;-67
2021/04/27 07:40:04;;;;;;;9.47;6.70;;;14.30;99.90;;;;;;5032219;28;20178;-68
2021/04/27 07:42:34;;;;;;;10.13;7.30;;;14.50;99.90;;;;;;5034357;28;20203;-67
2021/04/27 07:45:01;;;;;;;8.60;7.50;;;13.90;99.90;;;;;;5040566;28;20208;-67
2021/04/27 07:47:29;;;;;;;8.60;7.30;;;13.50;99.90;;;;;;5027353;28;20194;-67
2021/04/27 07:49:57;;;;;;;8.40;7.20;;;13.10;99.90;;;;;;5026197;28;20478;-67
2021/04/27 07:52:26;;;;;;;16.93;8.33;;;12.70;99.90;;;;;;5021341;28;20212;-66
2021/04/27 07:54:53;;;;;;;9.50;7.50;;;12.10;99.90;;;;;;5038893;28;20186;-66
2021/04/27 07:57:21;;;;;;;10.60;7.70;;;12.30;99.90;;;;;;5029106;28;20188;-66
2021/04/27 07:59:48;;;;;;;13.73;7.70;;;12.30;99.90;;;;;;5036302;28;20186;-66
2021/04/27 08:02:16;;;;;;;11.20;8.37;;;12.20;99.90;;;;;;5038747;28;20204;-66
2021/04/27 08:04:45;;;;;;;12.27;8.30;;;12.30;99.90;;;;;;5038209;28;20197;-66
2021/04/27 08:07:14;;;;;;;12.07;8.37;;;12.40;99.90;;;;;;5031565;28;20265;-67
2021/04/27 08:09:41;;;;;;;12.37;8.17;;;12.80;99.90;;;;;;5030849;28;20451;-67
2021/04/27 08:12:09;;;;;;;9.23;8.00;;;13.10;99.90;;;;;;5036044;28;20457;-67
2021/04/27 08:14:37;;;;;;;11.30;7.90;;;13.20;99.90;;;;;;5034844;28;20174;-66
2021/04/27 08:17:04;;;;;;;13.77;7.90;;;13.30;99.90;;;;;;5031839;28;20264;-67
2021/04/27 08:19:35;;;;;;;9.43;8.43;;;13.30;99.90;;;;;;5040181;28;20201;-66
2021/04/27 08:22:05;;;;;;;10.40;7.90;;;13.70;99.90;;;;;;5042852;28;20181;-67
2021/04/27 08:24:34;;;;;;;8.80;7.80;;;13.90;99.90;;;;;;5035997;28;20186;-67
2021/04/27 08:27:06;;;;;;;12.87;8.07;;;14.50;99.90;;;;;;5040095;28;20185;-67
2021/04/27 08:29:34;;;;;;;8.23;7.43;;;15.00;99.90;;;;;;5027032;28;20184;-68
2021/04/27 08:32:02;;;;;;;8.60;6.97;;;15.60;99.90;;;;;;5051975;28;20375;-67
2021/04/27 08:34:30;;;;;;;13.33;7.20;;;16.20;99.90;;;;;;5046435;28;20177;-67
2021/04/27 08:36:57;;;;;;;10.47;7.70;;;16.10;99.90;;;;;;5030912;28;20265;-67
2021/04/27 08:39:26;;;;;;;11.63;7.60;;;16.10;99.90;;;;;;5042808;28;20181;-67
2021/04/27 08:41:55;;;;;;;10.43;7.17;;;16.50;99.90;;;;;;5040586;28;20202;-66
2021/04/27 08:44:22;;;;;;;12.97;7.43;;;16.70;99.90;;;;;;5036803;28;20228;-67
2021/04/27 08:46:50;;;;;;;8.60;7.67;;;16.10;99.90;;;;;;5027088;28;20236;-67
2021/04/27 08:49:18;;;;;;;13.50;7.57;;;16.30;99.90;;;;;;5025931;28;20186;-67
2021/04/27 08:51:45;;;;;;;12.40;7.93;;;16.40;99.90;;;;;;5043719;28;20209;-66
2021/04/27 08:54:21;;;;;;;8.27;7.47;;;16.30;99.90;;;;;;5047555;28;20406;-67
2021/04/27 08:56:50;;;;;;;11.60;8.17;;;16.90;99.90;;;;;;5045842;28;20414;-67
2021/04/27 08:59:17;;;;;;;10.97;7.43;;;17.70;99.90;;;;;;5044814;28;20188;-67
2021/04/27 09:01:46;;;;;;;8.00;7.30;;;18.40;99.90;;;;;;5040780;28;20190;-67
2021/04/27 09:04:34;;;;;;;8.67;7.33;;;19.10;99.90;;;;;;5047339;28;20212;-67
2021/04/27 09:07:05;;;;;;;8.70;7.90;;;19.20;99.30;;;;;;5039732;28;20180;-67
2021/04/27 09:09:38;;;;;;;12.53;7.20;;;19.60;99.90;;;;;;5030586;28;20290;-67
2021/04/27 09:12:07;;;;;;;13.40;8.03;;;19.90;99.80;;;;;;5035119;28;20278;-67
2021/04/27 09:14:37;;;;;;;11.30;7.53;;;19.90;98.80;;;;;;5031510;28;20330;-67
2021/04/27 09:17:06;;;;;;;9.90;8.07;;;20.10;98.80;;;;;;5042074;28;20465;-67
2021/04/27 09:19:38;;;;;;;9.17;7.27;;;20.10;97.50;;;;;;5042506;28;20184;-67
2021/04/27 09:22:09;;;;;;;11.47;7.90;;;20.20;98.30;;;;;;5041349;28;20178;-67
2021/04/27 09:24:39;;;;;;;9.43;8.23;;;20.10;98.70;;;;;;5030844;28;20236;-67
2021/04/27 09:27:07;;;;;;;10.70;6.90;;;20.50;98.30;;;;;;5045513;28;20759;-67
2021/04/27 09:29:38;;;;;;;9.53;7.20;;;21.00;96.30;;;;;;5036064;28;20310;-67
2021/04/27 09:32:06;;;;;;;12.97;7.40;;;21.10;95.20;;;;;;5053371;28;20217;-67
2021/04/27 09:34:35;;;;;;;11.20;7.00;;;21.20;95.80;;;;;;5043313;28;20201;-67
2021/04/27 09:37:06;;;;;;;9.60;7.40;;;21.50;95.20;;;;;;5040818;28;20197;-67
2021/04/27 09:39:36;;;;;;;10.73;7.20;;;21.80;94.80;;;;;;5038046;28;20411;-67
2021/04/27 09:42:09;;;;;;;8.37;6.63;;;21.80;94.10;;;;;;5030936;28;20186;-68
2021/04/27 09:44:42;;;;;;;9.63;6.80;;;21.60;92.40;;;;;;5035246;28;20300;-67
2021/04/27 09:47:16;;;;;;;13.17;7.67;;;20.80;93.20;;;;;;5038878;28;20185;-67
2021/04/27 09:50:01;;;;;;;10.67;6.90;;;20.70;93.00;;;;;;5033087;28;20384;-67
2021/04/27 09:52:32;;;;;;;8.57;7.30;;;21.30;92.60;;;;;;5026441;28;20354;-67
2021/04/27 09:55:11;;;;;;;8.90;6.83;;;21.60;92.80;;;;;;5034801;28;20198;-67
2021/04/27 09:57:41;;;;;;;12.70;7.93;;;22.30;91.40;;;;;;5027594;28;20205;-67
2021/04/27 10:00:33;;;;;;;7.50;6.80;;;22.30;92.00;;;;;;5028292;28;20330;-67
2021/04/27 10:03:03;;;;;;;13.40;7.30;;;22.10;93.80;;;;;;5032921;28;20300;-67
2021/04/27 10:05:31;;;;;;;11.20;7.70;;;22.40;91.60;;;;;;5035370;28;20185;-67
2021/04/27 10:07:58;;;;;;;9.93;7.50;;;22.40;91.30;;;;;;5041133;28;20905;-66
2021/04/27 10:10:28;;;;;;;10.93;6.87;;;22.30;88.90;;;;;;5036991;28;20235;-67
2021/04/27 10:12:59;;;;;;;10.30;7.57;;;22.30;91.60;;;;;;5040242;28;20198;-66
2021/04/27 10:15:27;;;;;;;8.93;7.03;;;22.40;89.20;;;;;;5039067;28;20465;-67
2021/04/27 10:17:56;;;;;;;8.60;7.70;;;22.50;90.60;;;;;;5037983;28;20244;-67
2021/04/27 10:20:24;;;;;;;10.27;7.20;;;22.60;88.30;;;;;;5035968;28;20193;-67
2021/04/27 10:22:52;;;;;;;10.13;7.43;;;22.50;88.60;;;;;;5037428;28;20243;-67
2021/04/27 10:25:21;;;;;;;8.57;7.20;;;22.20;86.60;;;;;;5029309;28;20301;-67
2021/04/27 10:27:54;;;;;;;8.33;7.50;;;21.90;91.00;;;;;;5037380;28;20201;-67
2021/04/27 10:35:08;;;;;;;8.20;7.30;;;21.40;91.40;;;;;;5025958;28;20181;-67
2021/04/27 10:38:00;;;;;;;9.23;7.60;;;22.20;91.80;;;;;;5037940;28;20298;-67
2021/04/27 10:40:53;;;;;;;11.10;7.63;;;22.10;85.60;;;;;;5031702;28;20200;-66
2021/04/27 10:43:35;;;;;;;11.40;8.17;;;21.50;88.60;;;;;;5039322;28;20189;-67
2021/04/27 10:46:08;;;;;;;11.33;8.30;;;21.30;90.20;;;;;;5039799;28;20187;-66
2021/04/27 10:48:38;;;;;;;12.93;8.77;;;21.80;87.20;;;;;;5037595;28;20204;-67
2021/04/27 10:51:44;;;;;;;10.97;8.30;;;22.00;89.00;;;;;;5040348;28;20213;-67
2021/04/27 10:54:18;;;;;;;11.43;8.37;;;22.10;86.50;;;;;;5044793;28;20181;-67
2021/04/27 10:56:47;;;;;;;10.87;8.50;;;22.40;88.40;;;;;;5041911;28;20189;-67
2021/04/27 10:59:16;;;;;;;10.77;7.63;;;22.50;86.30;;;;;;5043425;28;20232;-67
2021/04/27 11:01:45;;;;;;;8.53;7.73;;;22.30;90.30;;;;;;5044130;28;20206;-67
2021/04/27 11:04:33;;;;;;;8.87;8.07;;;22.40;83.40;;;;;;5037185;28;20388;-67
2021/04/27 11:07:11;;;;;;;11.20;8.07;;;22.50;83.90;;;;;;5030973;28;20238;-66
2021/04/27 11:09:40;;;;;;;9.17;8.27;;;22.00;80.80;;;;;;5033148;28;20342;-67
2021/04/27 11:12:32;;;;;;;9.60;8.53;;;21.50;80.80;;;;;;5041894;28;20232;-66
2021/04/27 11:15:01;;;;;;;12.87;8.70;;;21.30;82.60;;;;;;5044688;28;20189;-66
2021/04/27 11:17:31;;;;;;;10.20;8.20;;;21.30;81.70;;;;;;5043443;28;20280;-67
2021/04/27 11:19:58;;;;;;;9.80;8.27;;;21.80;89.40;;;;;;5041431;28;20228;-67
2021/04/27 11:22:31;;;;;;;11.73;8.63;;;21.90;85.90;;;;;;5029368;28;20198;-66
2021/04/27 11:25:03;;;;;;;10.23;8.47;;;22.30;81.40;;;;;;5038859;28;20320;-67
2021/04/27 11:27:33;;;;;;;9.60;8.60;;;22.10;82.40;;;;;;5025343;28;20292;-66
2021/04/27 11:30:06;;;;;;;11.97;8.63;;;21.50;81.80;;;;;;5029761;28;20189;-67
2021/04/27 11:32:35;;;;;;;10.93;8.70;;;21.40;81.80;;;;;;5035508;28;20209;-66
2021/04/27 11:35:15;;;;;;;9.17;8.27;;;21.50;88.40;;;;;;5048399;28;20213;-67
2021/04/27 11:37:45;;;;;;;14.30;8.73;;;21.80;84.40;;;;;;5038199;28;20181;-67
2021/04/27 11:40:22;;;;;;;13.97;8.37;;;21.40;82.30;;;;;;5037156;28;20189;-66
2021/04/27 11:42:56;;;;;;;11.90;7.83;;;21.20;79.40;;;;;;5039854;28;20191;-66
2021/04/27 11:45:27;;;;;;;9.60;7.47;;;20.50;81.30;;;;;;5023649;28;20306;-67
2021/04/27 11:47:57;;;;;;;10.90;7.97;;;20.60;84.70;;;;;;5031006;28;20189;-66
2021/04/27 11:50:25;;;;;;;11.20;7.67;;;20.60;83.70;;;;;;5025799;28;20196;-66
2021/04/27 11:53:02;;;;;;;12.53;8.40;;;20.60;79.40;;;;;;5026751;28;20205;-66
2021/04/27 11:55:40;;;;;;;9.17;8.07;;;20.70;78.60;;;;;;5042239;28;20181;-67
2021/04/27 11:58:11;;;;;;;10.13;8.47;;;21.00;82.50;;;;;;5040378;28;20192;-66
2021/04/27 12:00:43;;;;;;;9.00;8.10;;;21.00;80.80;;;;;;5034837;28;20357;-65
2021/04/27 12:03:29;;;;;;;10.13;8.60;;;20.20;85.30;;;;;;5043668;28;20181;-66
2021/04/27 12:05:59;;;;;;;9.23;8.27;;;20.20;81.40;;;;;;5037677;28;20186;-66
2021/04/27 12:08:28;;;;;;;9.70;8.07;;;20.50;79.80;;;;;;5038141;28;20189;-66
2021/04/27 12:11:15;;;;;;;8.83;8.00;;;20.60;86.10;;;;;;5039215;28;20190;-66
2021/04/27 12:13:47;;;;;;;10.93;8.70;;;20.60;84.60;;;;;;5039580;28;20334;-66
2021/04/27 12:16:17;;;;;;;9.80;8.70;;;20.60;85.20;;;;;;5031087;28;20232;-66
2021/04/27 12:18:49;;;;;;;11.23;8.30;;;20.70;82.40;;;;;;5038592;28;20240;-66
2021/04/27 12:21:48;;;;;;;10.57;8.80;;;20.60;89.50;;;;;;5033724;28;20235;-66
2021/04/27 12:24:21;;;;;;;14.43;8.50;;;20.30;80.90;;;;;;5029418;28;20193;-66
2021/04/27 12:26:56;;;;;;;10.50;8.10;;;20.30;86.60;;;;;;5030220;28;20402;-66
2021/04/27 12:29:26;;;;;;;11.17;8.23;;;20.40;80.80;;;;;;5039438;28;20325;-66
2021/04/27 12:31:54;;;;;;;11.00;8.27;;;20.10;83.40;;;;;;5031121;28;20225;-66
2021/04/27 12:34:22;;;;;;;11.70;9.00;;;20.10;80.70;;;;;;5038832;28;20177;-66
2021/04/27 12:36:51;;;;;;;17.50;8.50;;;19.60;81.90;;;;;;5045975;28;20554;-66
2021/04/27 12:39:31;;;;;;;11.53;9.40;;;19.70;87.80;;;;;;5038118;28;20231;-66
2021/04/27 12:42:02;;;;;;;11.10;8.43;;;19.70;82.70;;;;;;5034739;28;20192;-66
2021/04/27 12:44:36;;;;;;;10.70;8.50;;;19.70;85.80;;;;;;5043912;28;20206;-66
2021/04/27 12:47:18;;;;;;;9.60;8.60;;;19.90;87.60;;;;;;5036478;28;20389;-66
2021/04/27 12:50:00;;;;;;;11.60;8.80;;;19.90;82.60;;;;;;5030297;28;20197;-66
2021/04/27 12:52:29;;;;;;;11.03;8.33;;;19.70;83.10;;;;;;5044252;28;20225;-66
2021/04/27 12:54:59;;;;;;;12.93;9.33;;;19.70;82.80;;;;;;5039804;28;20239;-66
2021/04/27 12:57:28;;;;;;;11.40;8.20;;;19.80;87.30;;;;;;5045508;28;20185;-66
2021/04/27 12:59:57;;;;;;;15.30;8.40;;;20.20;86.10;;;;;;5046633;28;20407;-66
2021/04/27 13:02:25;;;;;;;10.03;8.30;;;19.80;79.90;;;;;;5036514;28;20189;-66
2021/04/27 13:04:56;;;;;;;14.40;8.80;;;19.80;83.50;;;;;;5032837;28;20233;-65
2021/04/27 13:07:26;;;;;;;11.03;8.33;;;19.50;80.80;;;;;;5037109;28;20185;-66